createdAt,value
2017-11-25T00:00:55.709Z,8.97
2017-11-25T00:03:24.783Z,7.87
2017-11-25T00:05:54.023Z,8.57
2017-11-25T00:08:23.039Z,10.17
2017-11-25T00:10:52.043Z,8.70
2017-11-25T00:13:21.006Z,8.60
2017-11-25T00:15:49.839Z,9.20
2017-11-25T00:18:18.694Z,13.03
2017-11-25T00:20:47.685Z,9.07
2017-11-25T00:23:16.530Z,9.80
2017-11-25T00:25:46.173Z,8.67
2017-11-25T00:28:15.876Z,7.87
2017-11-25T00:30:44.733Z,9.13
2017-11-25T00:33:13.590Z,9.00
2017-11-25T00:35:43.046Z,9.03
2017-11-25T00:38:12.349Z,9.60
2017-11-25T00:40:41.301Z,8.50
2017-11-25T00:43:10.174Z,7.87
2017-11-25T00:45:39.117Z,5.43
2017-11-25T00:48:07.960Z,9.37
2017-11-25T00:50:36.890Z,7.50
2017-11-25T00:53:05.736Z,7.60
2017-11-25T00:55:34.578Z,9.13
2017-11-25T00:58:04.456Z,6.33
2017-11-25T01:00:33.394Z,8.53
2017-11-25T01:03:02.697Z,6.53
2017-11-25T01:05:31.586Z,6.60
2017-11-25T01:08:00.433Z,5.27
2017-11-25T01:10:29.280Z,6.07
2017-11-25T01:12:58.144Z,5.50
2017-11-25T01:15:28.882Z,6.20
2017-11-25T01:17:57.796Z,6.53
2017-11-25T01:20:26.708Z,8.30
2017-11-25T01:22:55.588Z,6.90
2017-11-25T01:25:24.498Z,7.23
2017-11-25T01:27:53.396Z,6.00
2017-11-25T01:30:23.000Z,5.40
2017-11-25T01:32:51.917Z,8.17
2017-11-25T01:35:20.834Z,7.00
2017-11-25T01:37:49.718Z,6.20
2017-11-25T01:40:18.634Z,6.60
2017-11-25T01:42:47.557Z,8.70
2017-11-25T01:45:16.443Z,7.27
2017-11-25T01:47:45.337Z,8.20
2017-11-25T01:50:14.255Z,6.77
2017-11-25T01:52:43.157Z,6.20
2017-11-25T01:55:12.035Z,7.30
2017-11-25T01:57:40.950Z,7.67
2017-11-25T02:00:09.852Z,5.20
2017-11-25T02:02:38.749Z,5.97
2017-11-25T02:05:07.656Z,5.80
2017-11-25T02:07:36.565Z,7.47
2017-11-25T02:10:05.464Z,5.20
2017-11-25T02:12:34.391Z,5.83
2017-11-25T02:15:03.287Z,6.67
2017-11-25T02:17:32.199Z,5.60
2017-11-25T02:20:01.162Z,6.37
2017-11-25T02:22:30.310Z,5.13
2017-11-25T02:24:59.285Z,4.57
2017-11-25T02:27:28.202Z,7.13
2017-11-25T02:29:57.149Z,5.60
2017-11-25T02:32:26.044Z,10.10
2017-11-25T02:34:55.569Z,4.97
2017-11-25T02:37:24.461Z,6.40
2017-11-25T02:39:53.457Z,5.40
2017-11-25T02:42:22.377Z,7.10
2017-11-25T02:44:51.270Z,6.53
2017-11-25T02:47:20.158Z,7.43
2017-11-25T02:49:49.085Z,6.63
2017-11-25T02:52:17.976Z,6.13
2017-11-25T02:54:46.888Z,4.80
2017-11-25T02:57:15.802Z,6.90
2017-11-25T02:59:44.693Z,4.73
2017-11-25T03:02:14.315Z,6.17
2017-11-25T03:04:43.226Z,5.20
2017-11-25T03:07:12.114Z,5.30
2017-11-25T03:09:41.020Z,4.77
2017-11-25T03:12:09.960Z,7.03
2017-11-25T03:14:38.842Z,5.30
2017-11-25T03:17:07.754Z,5.40
2017-11-25T03:19:36.673Z,5.63
2017-11-25T03:22:05.594Z,4.40
2017-11-25T03:24:34.510Z,4.93
2017-11-25T03:27:03.460Z,7.23
2017-11-25T03:29:32.357Z,5.20
2017-11-25T03:32:01.254Z,4.93
2017-11-25T03:34:30.174Z,5.47
2017-11-25T03:36:59.072Z,7.27
2017-11-25T03:39:27.977Z,7.70
2017-11-25T03:41:56.919Z,6.43
2017-11-25T03:44:27.625Z,6.30
2017-11-25T03:46:56.552Z,4.53
2017-11-25T03:49:25.461Z,5.77
2017-11-25T03:51:54.340Z,5.70
2017-11-25T03:54:23.241Z,5.50
2017-11-25T03:56:52.198Z,7.30
2017-11-25T03:59:21.089Z,6.93
2017-11-25T04:01:49.980Z,6.90
2017-11-25T04:04:18.900Z,6.17
2017-11-25T04:06:47.792Z,6.63
2017-11-25T04:09:16.685Z,11.20
2017-11-25T04:11:46.576Z,7.63
2017-11-25T04:14:16.384Z,7.37
2017-11-25T04:16:45.302Z,8.73
2017-11-25T04:19:14.199Z,7.73
2017-11-25T04:21:43.099Z,8.60
2017-11-25T04:24:12.014Z,6.60
2017-11-25T04:26:40.920Z,7.13
2017-11-25T04:29:09.817Z,5.37
2017-11-25T04:31:38.739Z,6.80
2017-11-25T04:34:07.652Z,8.53
2017-11-25T04:36:36.556Z,6.53
2017-11-25T04:39:06.724Z,7.27
2017-11-25T04:41:36.123Z,8.77
2017-11-25T04:44:05.186Z,8.73
2017-11-25T04:46:35.522Z,7.87
2017-11-25T04:49:04.420Z,8.83
2017-11-25T04:51:33.318Z,7.13
2017-11-25T04:54:02.845Z,8.87
2017-11-25T04:56:31.753Z,8.37
2017-11-25T04:59:00.657Z,7.40
2017-11-25T05:01:30.178Z,7.80
2017-11-25T05:03:59.583Z,8.83
2017-11-25T05:06:28.547Z,8.83
2017-11-25T05:08:57.485Z,8.53
2017-11-25T05:11:26.380Z,9.27
2017-11-25T05:13:55.287Z,8.80
2017-11-25T05:16:24.204Z,9.97
2017-11-25T05:18:53.122Z,9.03
2017-11-25T05:21:22.028Z,6.27
2017-11-25T05:23:50.957Z,7.43
2017-11-25T05:26:19.873Z,8.97
2017-11-25T05:28:48.751Z,6.47
2017-11-25T05:31:17.682Z,6.47
2017-11-25T05:33:46.659Z,8.10
2017-11-25T05:36:15.556Z,6.17
2017-11-25T05:38:45.439Z,6.67
2017-11-25T05:41:14.471Z,4.90
2017-11-25T05:43:43.369Z,7.83
2017-11-25T05:46:12.359Z,8.53
2017-11-25T05:48:41.253Z,5.87
2017-11-25T05:51:10.148Z,7.03
2017-11-25T05:53:39.700Z,9.70
2017-11-25T05:56:08.597Z,8.83
2017-11-25T05:58:37.481Z,8.07
2017-11-25T06:01:06.391Z,7.53
2017-11-25T06:03:35.281Z,7.27
2017-11-25T06:06:04.193Z,10.47
2017-11-25T06:08:33.144Z,9.53
2017-11-25T06:11:02.050Z,6.90
2017-11-25T06:13:30.947Z,9.00
2017-11-25T06:15:59.893Z,9.03
2017-11-25T06:18:28.780Z,7.40
2017-11-25T06:20:57.683Z,6.93
2017-11-25T06:23:26.604Z,4.87
2017-11-25T06:25:55.513Z,6.50
2017-11-25T06:28:25.127Z,7.53
2017-11-25T06:30:54.082Z,8.03
2017-11-25T06:33:22.964Z,6.73
2017-11-25T06:35:51.861Z,8.17
2017-11-25T06:38:20.792Z,9.70
2017-11-25T06:40:49.706Z,7.83
2017-11-25T06:43:18.595Z,7.50
2017-11-25T06:45:47.516Z,7.17
2017-11-25T06:48:16.403Z,7.83
2017-11-25T06:50:45.291Z,8.53
2017-11-25T06:53:14.202Z,10.93
2017-11-25T06:55:43.093Z,8.27
2017-11-25T06:58:11.976Z,6.70
2017-11-25T07:00:40.946Z,8.03
2017-11-25T07:03:11.202Z,7.80
2017-11-25T07:05:40.540Z,7.83
2017-11-25T07:08:10.336Z,11.03
2017-11-25T07:10:40.242Z,7.63
2017-11-25T07:13:09.177Z,8.77
2017-11-25T07:15:38.394Z,8.30
2017-11-25T07:18:07.300Z,8.00
2017-11-25T07:20:36.275Z,8.67
2017-11-25T07:23:05.191Z,7.90
2017-11-25T07:25:34.755Z,10.50
2017-11-25T07:28:03.688Z,10.93
2017-11-25T07:30:32.613Z,13.20
2017-11-25T07:33:02.253Z,14.70
2017-11-25T07:35:31.172Z,12.87
2017-11-25T07:38:00.110Z,10.10
2017-11-25T07:40:29.016Z,9.13
2017-11-25T07:42:57.936Z,13.67
2017-11-25T07:45:26.858Z,8.73
2017-11-25T07:47:55.753Z,8.97
2017-11-25T07:50:24.656Z,10.13
2017-11-25T07:52:53.600Z,10.87
2017-11-25T07:55:22.499Z,11.73
2017-11-25T07:57:51.389Z,13.53
2017-11-25T08:00:20.309Z,10.30
2017-11-25T08:02:49.205Z,16.77
2017-11-25T08:05:18.141Z,13.03
2017-11-25T08:07:47.606Z,13.57
2017-11-25T08:10:17.273Z,23.23
2017-11-25T08:12:46.135Z,21.63
2017-11-25T08:15:15.073Z,23.60
2017-11-25T08:17:44.651Z,19.77
2017-11-25T08:20:13.714Z,25.43
2017-11-25T08:22:42.586Z,20.43
2017-11-25T08:25:11.540Z,26.10
2017-11-25T08:27:40.507Z,20.87
2017-11-25T08:30:09.405Z,23.93
2017-11-25T08:32:38.965Z,22.20
2017-11-25T08:35:07.810Z,28.07
2017-11-25T08:37:37.324Z,19.97
2017-11-25T08:40:06.182Z,25.40
2017-11-25T08:42:35.081Z,29.30
2017-11-25T08:45:03.954Z,30.57
2017-11-25T08:47:32.792Z,27.23
2017-11-25T08:50:01.915Z,27.00
2017-11-25T08:52:30.787Z,30.87
2017-11-25T08:55:00.262Z,28.40
2017-11-25T08:57:29.155Z,29.50
2017-11-25T08:59:58.047Z,30.20
2017-11-25T09:02:26.924Z,37.80
2017-11-25T09:04:56.271Z,30.80
2017-11-25T09:07:25.174Z,27.57
2017-11-25T09:09:54.022Z,30.67
2017-11-25T09:12:22.897Z,30.63
2017-11-25T09:14:51.777Z,34.30
2017-11-25T09:17:20.621Z,34.20
2017-11-25T09:19:49.461Z,34.00
2017-11-25T09:22:18.337Z,31.47
2017-11-25T09:24:47.173Z,31.13
2017-11-25T09:27:16.016Z,30.70
2017-11-25T09:29:44.904Z,33.80
2017-11-25T09:32:14.565Z,33.03
2017-11-25T09:34:43.488Z,31.00
2017-11-25T09:37:12.389Z,25.10
2017-11-25T09:39:41.257Z,24.93
2017-11-25T09:42:10.104Z,26.93
2017-11-25T09:44:38.971Z,26.77
2017-11-25T09:47:08.616Z,21.70
2017-11-25T09:49:37.467Z,21.53
2017-11-25T09:52:06.334Z,22.00
2017-11-25T09:54:35.196Z,31.20
2017-11-25T09:57:04.088Z,20.73
2017-11-25T09:59:32.970Z,30.43
2017-11-25T10:02:01.830Z,21.07
2017-11-25T10:04:30.675Z,17.17
2017-11-25T10:06:59.590Z,18.70
2017-11-25T10:09:28.434Z,16.53
2017-11-25T10:11:57.288Z,22.43
2017-11-25T10:14:26.192Z,17.83
2017-11-25T10:16:55.029Z,17.50
2017-11-25T10:19:23.894Z,18.70
2017-11-25T10:21:52.760Z,20.83
2017-11-25T10:24:22.230Z,19.47
2017-11-25T10:26:51.071Z,17.57
2017-11-25T10:29:19.928Z,19.07
2017-11-25T10:31:48.825Z,16.83
2017-11-25T10:34:17.669Z,16.23
2017-11-25T10:36:46.561Z,22.23
2017-11-25T10:39:15.413Z,24.67
2017-11-25T10:41:44.262Z,21.40
2017-11-25T10:44:13.125Z,16.57
2017-11-25T10:46:41.976Z,19.70
2017-11-25T10:49:10.825Z,22.20
2017-11-25T10:51:39.704Z,16.37
2017-11-25T10:54:08.582Z,16.10
2017-11-25T10:56:38.120Z,17.47
2017-11-25T10:59:06.996Z,16.13
2017-11-25T11:01:36.610Z,17.33
2017-11-25T11:04:05.871Z,15.20
2017-11-25T11:06:34.773Z,16.93
2017-11-25T11:09:03.661Z,14.97
2017-11-25T11:11:32.568Z,16.60
2017-11-25T11:14:01.676Z,14.87
2017-11-25T11:16:30.529Z,17.27
2017-11-25T11:18:59.376Z,14.17
2017-11-25T11:21:28.261Z,17.87
2017-11-25T11:23:57.159Z,14.50
2017-11-25T11:26:26.358Z,14.17
2017-11-25T11:28:55.221Z,11.80
2017-11-25T11:31:24.125Z,16.13
2017-11-25T11:33:53.008Z,14.17
2017-11-25T11:36:21.931Z,12.60
2017-11-25T11:38:50.993Z,14.87
2017-11-25T11:41:19.917Z,14.43
2017-11-25T11:43:48.969Z,14.17
2017-11-25T11:46:18.577Z,11.47
2017-11-25T11:48:47.421Z,12.23
2017-11-25T11:51:16.281Z,10.83
2017-11-25T11:53:45.156Z,11.33
2017-11-25T11:56:14.030Z,11.87
2017-11-25T11:58:42.941Z,12.77
2017-11-25T12:01:11.830Z,12.83
2017-11-25T12:03:40.860Z,10.70
2017-11-25T12:06:10.280Z,10.70
2017-11-25T12:08:39.489Z,10.33
2017-11-25T12:11:08.464Z,10.67
2017-11-25T12:13:37.332Z,11.33
2017-11-25T12:16:06.178Z,10.83
2017-11-25T12:18:35.068Z,11.93
2017-11-25T12:21:04.870Z,10.60
2017-11-25T12:23:33.929Z,12.37
2017-11-25T12:26:03.033Z,12.93
2017-11-25T12:28:31.920Z,9.97
2017-11-25T12:31:00.774Z,11.47
2017-11-25T12:33:30.238Z,8.73
2017-11-25T12:35:59.116Z,10.60
2017-11-25T12:38:27.958Z,9.93
2017-11-25T12:40:57.848Z,12.13
2017-11-25T12:43:26.839Z,12.57
2017-11-25T12:45:55.697Z,11.80
2017-11-25T12:48:24.539Z,12.70
2017-11-25T12:50:53.954Z,11.13
2017-11-25T12:53:22.804Z,12.07
2017-11-25T12:55:51.672Z,12.63
2017-11-25T12:58:21.023Z,11.20
2017-11-25T13:00:50.603Z,10.97
2017-11-25T13:03:19.482Z,11.63
2017-11-25T13:05:48.958Z,12.70
2017-11-25T13:08:18.130Z,12.57
2017-11-25T13:10:49.852Z,11.40
2017-11-25T13:13:18.692Z,13.87
2017-11-25T13:15:47.563Z,9.33
2017-11-25T13:18:16.414Z,9.63
2017-11-25T13:20:45.247Z,7.10
2017-11-25T13:23:14.079Z,4.80
2017-11-25T13:25:42.959Z,2.93
2017-11-25T13:28:11.942Z,2.50
2017-11-25T13:30:41.424Z,1.70
2017-11-25T13:33:10.298Z,2.40
2017-11-25T13:35:39.308Z,1.87
2017-11-25T13:38:08.186Z,2.30
2017-11-25T13:40:37.171Z,1.63
2017-11-25T13:43:06.023Z,3.07
2017-11-25T13:45:34.896Z,1.83
2017-11-25T13:48:03.790Z,1.67
2017-11-25T13:50:32.639Z,2.77
2017-11-25T13:53:01.490Z,1.83
2017-11-25T13:55:30.357Z,2.40
2017-11-25T13:57:59.247Z,1.90
2017-11-25T14:00:28.088Z,1.50
2017-11-25T14:02:56.966Z,4.13
2017-11-25T14:05:25.817Z,2.70
2017-11-25T14:07:54.738Z,1.90
2017-11-25T14:10:24.307Z,2.83
2017-11-25T14:12:53.184Z,26.97
2017-11-25T14:15:22.091Z,2.67
2017-11-25T14:17:50.997Z,3.17
2017-11-25T14:20:19.851Z,2.03
2017-11-25T14:22:48.695Z,2.57
2017-11-25T14:25:17.581Z,4.43
2017-11-25T14:27:46.412Z,4.27
2017-11-25T14:30:15.257Z,4.87
2017-11-25T14:32:44.117Z,4.20
2017-11-25T14:35:13.179Z,5.93
2017-11-25T14:37:42.042Z,2.80
2017-11-25T14:40:10.943Z,2.97
2017-11-25T14:42:39.808Z,4.50
2017-11-25T14:45:08.816Z,3.27
2017-11-25T14:47:37.674Z,6.40
2017-11-25T14:50:06.523Z,4.40
2017-11-25T14:52:35.355Z,6.33
2017-11-25T14:55:04.236Z,5.57
2017-11-25T14:57:33.092Z,6.10
2017-11-25T15:00:01.981Z,6.20
2017-11-25T15:02:32.498Z,3.13
2017-11-25T15:05:01.365Z,3.37
2017-11-25T15:07:30.203Z,3.27
2017-11-25T15:09:59.082Z,6.00
2017-11-25T15:12:27.967Z,5.33
2017-11-25T15:14:56.829Z,5.03
2017-11-25T15:17:25.728Z,4.53
2017-11-25T15:19:54.604Z,27.40
2017-11-25T15:22:24.379Z,8.50
2017-11-25T15:24:54.365Z,6.87
2017-11-25T15:27:23.230Z,8.27
2017-11-25T15:29:52.078Z,4.93
2017-11-25T15:32:26.742Z,5.50
2017-11-25T15:34:55.582Z,6.53
2017-11-25T15:37:24.428Z,6.27
2017-11-25T15:39:53.312Z,4.37
2017-11-25T15:42:22.155Z,6.90
2017-11-25T15:44:51.013Z,5.27
2017-11-25T15:47:19.860Z,9.30
2017-11-25T15:49:48.793Z,4.43
2017-11-25T15:52:17.657Z,5.97
2017-11-25T15:54:46.514Z,6.07
2017-11-25T15:57:15.360Z,5.73
2017-11-25T15:59:44.209Z,5.60
2017-11-25T16:02:13.580Z,8.30
2017-11-25T16:04:42.426Z,6.27
2017-11-25T16:07:11.315Z,5.67
2017-11-25T16:09:40.221Z,4.33
2017-11-25T16:12:09.054Z,3.70
2017-11-25T16:14:37.901Z,2.93
2017-11-25T16:17:06.818Z,5.13
2017-11-25T16:19:35.659Z,5.78
2017-11-25T16:22:04.539Z,4.33
2017-11-25T16:24:33.920Z,7.40
2017-11-25T16:27:02.817Z,6.90
2017-11-25T16:29:31.690Z,5.53
2017-11-25T16:32:00.710Z,6.43
2017-11-25T16:34:29.550Z,7.93
2017-11-25T16:36:58.410Z,7.97
2017-11-25T16:39:27.297Z,13.87
2017-11-25T16:41:56.956Z,8.40
2017-11-25T16:44:26.698Z,9.60
2017-11-25T16:46:56.056Z,9.07
2017-11-25T16:49:24.910Z,17.97
2017-11-25T16:51:53.750Z,12.73
2017-11-25T16:54:22.626Z,7.13
2017-11-25T16:56:51.462Z,9.97
2017-11-25T16:59:20.296Z,9.70
2017-11-25T17:01:49.294Z,8.07
2017-11-25T17:04:18.295Z,9.00
2017-11-25T17:06:47.299Z,9.27
2017-11-25T17:09:16.224Z,8.17
2017-11-25T17:11:45.073Z,8.33
2017-11-25T17:14:13.916Z,8.63
2017-11-25T17:16:42.788Z,8.17
2017-11-25T17:19:12.304Z,10.00
2017-11-25T17:21:41.146Z,9.73
2017-11-25T17:24:10.012Z,9.93
2017-11-25T17:26:38.864Z,14.03
2017-11-25T17:29:07.726Z,11.60
2017-11-25T17:31:36.911Z,10.13
2017-11-25T17:34:05.763Z,16.17
2017-11-25T17:36:34.662Z,9.90
2017-11-25T17:39:03.562Z,10.90
2017-11-25T17:41:32.431Z,11.70
2017-11-25T17:44:01.291Z,22.40
2017-11-25T17:46:30.145Z,11.93
2017-11-25T17:48:59.036Z,16.63
2017-11-25T17:51:27.869Z,9.93
2017-11-25T17:53:56.756Z,12.17
2017-11-25T17:56:25.611Z,18.80
2017-11-25T17:58:55.367Z,28.43
2017-11-25T18:01:24.241Z,105.67
2017-11-25T18:03:53.960Z,20.23
2017-11-25T18:06:22.819Z,15.03
2017-11-25T18:08:51.784Z,34.27
2017-11-25T18:11:20.626Z,16.17
2017-11-25T18:13:49.475Z,8.87
2017-11-25T18:16:18.377Z,10.93
2017-11-25T18:18:47.261Z,10.70
2017-11-25T18:21:16.099Z,11.00
2017-11-25T18:23:44.957Z,11.87
2017-11-25T18:26:13.812Z,11.17
2017-11-25T18:28:42.671Z,10.37
2017-11-25T18:31:11.551Z,8.20
2017-11-25T18:33:41.368Z,10.67
2017-11-25T18:36:10.237Z,13.50
2017-11-25T18:38:39.104Z,9.47
2017-11-25T18:41:07.939Z,12.23
2017-11-25T18:43:36.777Z,9.73
2017-11-25T18:46:05.668Z,13.57
2017-11-25T18:48:34.637Z,10.93
2017-11-25T18:51:03.556Z,13.77
2017-11-25T18:53:32.450Z,13.80
2017-11-25T18:56:01.308Z,16.73
2017-11-25T18:58:30.393Z,13.43
2017-11-25T19:00:59.336Z,16.27
2017-11-25T19:03:28.238Z,12.87
2017-11-25T19:05:57.076Z,16.90
2017-11-25T19:08:25.958Z,16.43
2017-11-25T19:10:54.832Z,19.90
2017-11-25T19:13:23.691Z,17.47
2017-11-25T19:15:52.561Z,15.80
2017-11-25T19:18:21.424Z,14.07
2017-11-25T19:20:51.289Z,14.50
2017-11-25T19:23:20.162Z,11.83
2017-11-25T19:25:48.992Z,13.83
2017-11-25T19:28:17.849Z,13.90
2017-11-25T19:30:46.771Z,15.03
2017-11-25T19:33:15.634Z,13.13
2017-11-25T19:35:44.488Z,12.73
2017-11-25T19:38:13.372Z,14.83
2017-11-25T19:40:42.262Z,11.77
2017-11-25T19:43:11.107Z,13.30
2017-11-25T19:45:39.978Z,11.90
2017-11-25T19:48:09.780Z,11.97
2017-11-25T19:50:38.851Z,10.90
2017-11-25T19:53:08.124Z,17.57
2017-11-25T19:55:37.609Z,14.30
2017-11-25T19:58:06.452Z,12.43
2017-11-25T20:00:35.316Z,13.60
2017-11-25T20:03:04.164Z,14.43
2017-11-25T20:05:33.018Z,15.37
2017-11-25T20:08:01.893Z,13.77
2017-11-25T20:10:30.772Z,14.93
2017-11-25T20:12:59.641Z,16.83
2017-11-25T20:15:28.514Z,17.97
2017-11-25T20:17:57.375Z,17.93
2017-11-25T20:20:26.268Z,15.10
2017-11-25T20:22:55.129Z,18.23
2017-11-25T20:25:23.972Z,12.47
2017-11-25T20:27:52.840Z,14.33
2017-11-25T20:30:21.751Z,17.53
2017-11-25T20:32:50.594Z,13.40
2017-11-25T20:35:20.345Z,18.60
2017-11-25T20:37:49.210Z,18.43
2017-11-25T20:40:18.062Z,14.73
2017-11-25T20:42:46.981Z,15.87
2017-11-25T20:45:15.855Z,21.27
2017-11-25T20:47:44.778Z,17.13
2017-11-25T20:50:13.620Z,13.87
2017-11-25T20:52:42.573Z,16.13
2017-11-25T20:55:11.419Z,16.23
2017-11-25T20:57:40.287Z,15.43
2017-11-25T21:00:09.232Z,17.20
2017-11-25T21:02:38.099Z,15.50
2017-11-25T21:05:06.941Z,15.23
2017-11-25T21:07:35.868Z,34.00
2017-11-25T21:10:04.744Z,29.87
2017-11-25T21:12:33.588Z,21.27
2017-11-25T21:15:02.494Z,29.90
2017-11-25T21:17:31.703Z,21.50
2017-11-25T21:20:00.569Z,19.97
2017-11-25T21:22:29.855Z,17.40
2017-11-25T21:24:58.710Z,16.00
2017-11-25T21:27:27.598Z,19.73
2017-11-25T21:29:56.475Z,20.17
2017-11-25T21:32:25.874Z,21.70
2017-11-25T21:34:54.736Z,16.97
2017-11-25T21:37:24.581Z,22.73
2017-11-25T21:39:53.453Z,24.30
2017-11-25T21:42:22.303Z,17.17
2017-11-25T21:44:51.920Z,18.17
2017-11-25T21:47:21.832Z,19.60
2017-11-25T21:49:50.705Z,18.80
2017-11-25T21:52:19.580Z,18.37
2017-11-25T21:54:48.433Z,17.00
2017-11-25T21:57:17.272Z,21.70
2017-11-25T21:59:46.161Z,19.93
2017-11-25T22:02:15.004Z,17.17
2017-11-25T22:04:44.635Z,14.83
2017-11-25T22:07:13.509Z,17.97
2017-11-25T22:09:42.449Z,15.10
2017-11-25T22:12:11.325Z,16.13
2017-11-25T22:14:40.180Z,16.40
2017-11-25T22:17:09.028Z,15.93
2017-11-25T22:19:37.870Z,16.93
2017-11-25T22:22:06.741Z,17.17
2017-11-25T22:24:35.619Z,14.53
2017-11-25T22:27:04.611Z,18.10
2017-11-25T22:29:33.493Z,20.97
2017-11-25T22:32:02.337Z,19.40
2017-11-25T22:34:31.193Z,17.97
2017-11-25T22:37:00.085Z,14.67
2017-11-25T22:39:28.991Z,14.37
2017-11-25T22:41:57.825Z,16.73
2017-11-25T22:44:26.718Z,14.73
2017-11-25T22:46:55.579Z,15.77
2017-11-25T22:49:24.423Z,13.70
2017-11-25T22:51:53.320Z,14.80
2017-11-25T22:54:22.153Z,14.30
2017-11-25T22:56:51.253Z,15.20
2017-11-25T22:59:20.124Z,18.50
2017-11-25T23:01:48.969Z,14.23
2017-11-25T23:04:17.801Z,12.70
2017-11-25T23:06:46.686Z,13.50
2017-11-25T23:09:15.530Z,12.80
2017-11-25T23:11:44.409Z,12.83
2017-11-25T23:14:14.972Z,11.23
2017-11-25T23:16:43.956Z,17.03
2017-11-25T23:19:12.811Z,16.90
2017-11-25T23:21:42.535Z,13.97
2017-11-25T23:24:13.554Z,17.17
2017-11-25T23:26:42.424Z,15.20
2017-11-25T23:29:11.318Z,14.97
2017-11-25T23:31:40.240Z,15.23
2017-11-25T23:34:09.262Z,14.97
2017-11-25T23:36:38.122Z,14.27
2017-11-25T23:39:07.169Z,16.63
2017-11-25T23:41:36.026Z,16.20
2017-11-25T23:44:05.892Z,15.97
2017-11-25T23:46:34.744Z,15.43
2017-11-25T23:49:04.098Z,13.43
2017-11-25T23:51:32.938Z,15.13
2017-11-25T23:54:02.428Z,16.73
2017-11-25T23:56:31.342Z,11.47
2017-11-25T23:59:00.701Z,12.90
